sensor_id;sensor_type;location;lat;lon;timestamp;pressure;altitude;pressure_sealevel;temperature;humidity
12182;BME280;6154;51.550;12.138;2023-10-31T00:02:26;98528.44;;;16.80;72.37
12182;BME280;6154;51.550;12.138;2023-10-31T00:04:54;98533.31;;;16.76;72.65
12182;BME280;6154;51.550;12.138;2023-10-31T00:07:22;98524.94;;;16.79;72.55
12182;BME280;6154;51.550;12.138;2023-10-31T00:09:51;98519.41;;;16.81;72.26
12182;BME280;6154;51.550;12.138;2023-10-31T00:12:20;98521.09;;;16.82;72.25
12182;BME280;6154;51.550;12.138;2023-10-31T00:14:50;98528.94;;;16.83;71.27
12182;BME280;6154;51.550;12.138;2023-10-31T00:17:18;98530.63;;;16.84;71.20
12182;BME280;6154;51.550;12.138;2023-10-31T00:19:47;98541.12;;;16.86;70.98
12182;BME280;6154;51.550;12.138;2023-10-31T00:22:15;98534.59;;;16.88;71.13
12182;BME280;6154;51.550;12.138;2023-10-31T00:24:43;98543.44;;;16.89;71.41
12182;BME280;6154;51.550;12.138;2023-10-31T00:27:13;98548.31;;;16.85;70.78
12182;BME280;6154;51.550;12.138;2023-10-31T00:29:41;98546.13;;;16.89;71.37
12182;BME280;6154;51.550;12.138;2023-10-31T00:32:10;98556.34;;;16.85;70.78
12182;BME280;6154;51.550;12.138;2023-10-31T00:34:38;98564.53;;;16.84;70.61
12182;BME280;6154;51.550;12.138;2023-10-31T00:37:06;98558.81;;;16.87;70.90
12182;BME280;6154;51.550;12.138;2023-10-31T00:39:35;98548.78;;;16.89;71.67
12182;BME280;6154;51.550;12.138;2023-10-31T00:42:03;98543.44;;;16.89;71.43
12182;BME280;6154;51.550;12.138;2023-10-31T00:44:32;98550.63;;;16.88;71.31
12182;BME280;6154;51.550;12.138;2023-10-31T00:47:00;98543.28;;;16.90;71.82
12182;BME280;6154;51.550;12.138;2023-10-31T00:49:29;98541.25;;;16.92;71.88
12182;BME280;6154;51.550;12.138;2023-10-31T00:51:57;98547.63;;;16.91;71.43
12182;BME280;6154;51.550;12.138;2023-10-31T00:54:25;98543.94;;;16.92;71.92
12182;BME280;6154;51.550;12.138;2023-10-31T00:56:53;98545.13;;;16.90;71.20
12182;BME280;6154;51.550;12.138;2023-10-31T00:59:21;98533.94;;;16.94;71.92
12182;BME280;6154;51.550;12.138;2023-10-31T01:01:50;98532.09;;;16.95;72.00
12182;BME280;6154;51.550;12.138;2023-10-31T01:04:19;98530.06;;;16.97;71.99
12182;BME280;6154;51.550;12.138;2023-10-31T01:06:47;98519.88;;;17.01;72.02
12182;BME280;6154;51.550;12.138;2023-10-31T01:09:18;98529.06;;;16.98;72.24
12182;BME280;6154;51.550;12.138;2023-10-31T01:11:47;98519.88;;;16.92;73.62
12182;BME280;6154;51.550;12.138;2023-10-31T01:14:15;98509.06;;;16.94;73.46
12182;BME280;6154;51.550;12.138;2023-10-31T01:16:43;98523.75;;;16.90;73.89
12182;BME280;6154;51.550;12.138;2023-10-31T01:19:12;98522.06;;;16.89;74.15
12182;BME280;6154;51.550;12.138;2023-10-31T01:21:40;98514.53;;;16.92;74.30
12182;BME280;6154;51.550;12.138;2023-10-31T01:24:09;98517.38;;;16.91;74.94
12182;BME280;6154;51.550;12.138;2023-10-31T01:26:37;98514.31;;;17.10;73.81
12182;BME280;6154;51.550;12.138;2023-10-31T01:29:05;98527.75;;;16.94;74.51
12182;BME280;6154;51.550;12.138;2023-10-31T01:31:33;98520.38;;;16.96;74.14
12182;BME280;6154;51.550;12.138;2023-10-31T01:34:23;98510.34;;;16.98;73.74
12182;BME280;6154;51.550;12.138;2023-10-31T01:36:51;98507.69;;;16.98;73.99
12182;BME280;6154;51.550;12.138;2023-10-31T01:39:19;98510.66;;;17.03;73.54
12182;BME280;6154;51.550;12.138;2023-10-31T01:41:47;98505.16;;;17.05;73.88
12182;BME280;6154;51.550;12.138;2023-10-31T01:44:15;98504.16;;;17.06;74.37
12182;BME280;6154;51.550;12.138;2023-10-31T01:46:43;98504.47;;;17.03;74.60
12182;BME280;6154;51.550;12.138;2023-10-31T01:49:12;98502.62;;;17.03;75.06
12182;BME280;6154;51.550;12.138;2023-10-31T01:51:42;98503.81;;;17.09;74.20
12182;BME280;6154;51.550;12.138;2023-10-31T01:54:10;98499.09;;;17.11;74.05
12182;BME280;6154;51.550;12.138;2023-10-31T01:56:40;98498.94;;;17.12;74.11
12182;BME280;6154;51.550;12.138;2023-10-31T01:59:08;98501.44;;;17.14;73.91
12182;BME280;6154;51.550;12.138;2023-10-31T02:01:38;98493.25;;;17.15;73.82
12182;BME280;6154;51.550;12.138;2023-10-31T02:04:08;98487.72;;;17.17;73.77
12182;BME280;6154;51.550;12.138;2023-10-31T02:06:36;98488.22;;;17.12;74.72
12182;BME280;6154;51.550;12.138;2023-10-31T02:09:06;98489.25;;;17.11;74.85
12182;BME280;6154;51.550;12.138;2023-10-31T02:11:34;98493.28;;;17.07;74.71
12182;BME280;6154;51.550;12.138;2023-10-31T02:14:02;98492.94;;;17.10;74.69
12182;BME280;6154;51.550;12.138;2023-10-31T02:16:30;98494.25;;;17.14;74.29
12182;BME280;6154;51.550;12.138;2023-10-31T02:18:59;98488.09;;;17.14;74.10
12182;BME280;6154;51.550;12.138;2023-10-31T02:21:27;98493.25;;;17.15;73.64
12182;BME280;6154;51.550;12.138;2023-10-31T02:23:59;98487.91;;;17.15;73.80
12182;BME280;6154;51.550;12.138;2023-10-31T02:26:30;98490.59;;;17.15;73.55
12182;BME280;6154;51.550;12.138;2023-10-31T02:29:00;98474.53;;;17.15;73.82
12182;BME280;6154;51.550;12.138;2023-10-31T02:31:29;98472.53;;;17.17;74.25
12182;BME280;6154;51.550;12.138;2023-10-31T02:33:57;98477.50;;;17.20;73.79
12182;BME280;6154;51.550;12.138;2023-10-31T02:36:25;98476.22;;;17.16;74.83
12182;BME280;6154;51.550;12.138;2023-10-31T02:38:53;98478.22;;;17.14;75.29
12182;BME280;6154;51.550;12.138;2023-10-31T02:41:23;98472.19;;;17.12;75.32
12182;BME280;6154;51.550;12.138;2023-10-31T02:43:52;98477.03;;;17.17;73.75
12182;BME280;6154;51.550;12.138;2023-10-31T02:46:22;98476.50;;;17.21;73.49
12182;BME280;6154;51.550;12.138;2023-10-31T02:48:50;98477.16;;;17.23;73.30
12182;BME280;6154;51.550;12.138;2023-10-31T02:51:19;98470.81;;;17.24;72.84
12182;BME280;6154;51.550;12.138;2023-10-31T02:53:47;98469.81;;;17.26;72.75
12182;BME280;6154;51.550;12.138;2023-10-31T02:56:15;98466.12;;;17.27;73.18
12182;BME280;6154;51.550;12.138;2023-10-31T02:58:45;98466.12;;;17.27;72.95
12182;BME280;6154;51.550;12.138;2023-10-31T03:01:13;98472.12;;;17.29;72.28
12182;BME280;6154;51.550;12.138;2023-10-31T03:03:42;98460.41;;;17.30;72.82
12182;BME280;6154;51.550;12.138;2023-10-31T03:06:10;98459.41;;;17.31;72.45
12182;BME280;6154;51.550;12.138;2023-10-31T03:08:38;98456.72;;;17.31;72.42
12182;BME280;6154;51.550;12.138;2023-10-31T03:11:06;98454.06;;;17.31;72.50
12182;BME280;6154;51.550;12.138;2023-10-31T03:13:35;98446.69;;;17.33;72.14
12182;BME280;6154;51.550;12.138;2023-10-31T03:16:05;98440.50;;;17.32;72.31
12182;BME280;6154;51.550;12.138;2023-10-31T03:18:33;98435.84;;;17.34;72.64
12182;BME280;6154;51.550;12.138;2023-10-31T03:21:01;98443.69;;;17.36;72.64
12182;BME280;6154;51.550;12.138;2023-10-31T03:23:30;98447.53;;;17.33;72.16
12182;BME280;6154;51.550;12.138;2023-10-31T03:25:58;98446.69;;;17.33;72.29
12182;BME280;6154;51.550;12.138;2023-10-31T03:28:26;98456.22;;;17.35;72.46
12182;BME280;6154;51.550;12.138;2023-10-31T03:30:55;98444.75;;;17.27;72.85
12182;BME280;6154;51.550;12.138;2023-10-31T03:33:25;98450.09;;;17.27;72.89
12182;BME280;6154;51.550;12.138;2023-10-31T03:35:53;98449.25;;;17.26;73.28
12182;BME280;6154;51.550;12.138;2023-10-31T03:38:21;98457.47;;;17.24;72.85
12182;BME280;6154;51.550;12.138;2023-10-31T03:40:49;98447.09;;;17.21;72.53
12182;BME280;6154;51.550;12.138;2023-10-31T03:43:20;98444.41;;;17.21;72.55
12182;BME280;6154;51.550;12.138;2023-10-31T03:45:48;98446.25;;;17.21;72.51
12182;BME280;6154;51.550;12.138;2023-10-31T03:48:16;98453.81;;;17.17;72.68
12182;BME280;6154;51.550;12.138;2023-10-31T03:50:46;98446.81;;;17.16;73.03
12182;BME280;6154;51.550;12.138;2023-10-31T03:53:14;98454.69;;;17.10;73.03
12182;BME280;6154;51.550;12.138;2023-10-31T03:55:42;98455.84;;;17.15;73.12
12182;BME280;6154;51.550;12.138;2023-10-31T03:58:10;98455.88;;;17.07;73.23
12182;BME280;6154;51.550;12.138;2023-10-31T04:00:39;98464.88;;;17.14;73.29
12182;BME280;6154;51.550;12.138;2023-10-31T04:03:08;98465.69;;;17.15;73.68
12182;BME280;6154;51.550;12.138;2023-10-31T04:05:36;98472.53;;;17.17;73.74
12182;BME280;6154;51.550;12.138;2023-10-31T04:08:05;98473.84;;;17.13;73.55
12182;BME280;6154;51.550;12.138;2023-10-31T04:10:34;98475.38;;;17.16;73.31
12182;BME280;6154;51.550;12.138;2023-10-31T04:13:02;98474.38;;;17.17;73.58
12182;BME280;6154;51.550;12.138;2023-10-31T04:15:30;98481.56;;;17.16;73.76
12182;BME280;6154;51.550;12.138;2023-10-31T04:17:58;98479.88;;;17.15;73.29
12182;BME280;6154;51.550;12.138;2023-10-31T04:20:26;98482.88;;;17.12;73.49
12182;BME280;6154;51.550;12.138;2023-10-31T04:22:54;98479.38;;;17.12;74.04
12182;BME280;6154;51.550;12.138;2023-10-31T04:25:24;98470.34;;;17.13;74.15
12182;BME280;6154;51.550;12.138;2023-10-31T04:27:53;98469.19;;;17.15;74.33
12182;BME280;6154;51.550;12.138;2023-10-31T04:30:21;98456.84;;;17.14;74.42
12182;BME280;6154;51.550;12.138;2023-10-31T04:32:50;98461.22;;;17.07;75.05
12182;BME280;6154;51.550;12.138;2023-10-31T04:35:18;98460.19;;;17.08;75.39
12182;BME280;6154;51.550;12.138;2023-10-31T04:37:46;98469.22;;;17.07;74.96
12182;BME280;6154;51.550;12.138;2023-10-31T04:40:14;98464.75;;;17.00;75.89
12182;BME280;6154;51.550;12.138;2023-10-31T04:42:46;98466.09;;;17.04;75.91
12182;BME280;6154;51.550;12.138;2023-10-31T04:45:14;98465.94;;;16.97;75.63
12182;BME280;6154;51.550;12.138;2023-10-31T04:47:43;98465.72;;;17.07;76.32
12182;BME280;6154;51.550;12.138;2023-10-31T04:50:11;98470.72;;;17.10;75.85
12182;BME280;6154;51.550;12.138;2023-10-31T04:52:39;98473.91;;;17.05;75.35
12182;BME280;6154;51.550;12.138;2023-10-31T04:55:08;98480.91;;;17.14;75.67
12182;BME280;6154;51.550;12.138;2023-10-31T04:57:36;98484.25;;;17.08;76.19
12182;BME280;6154;51.550;12.138;2023-10-31T05:00:07;98488.41;;;17.11;76.01
12182;BME280;6154;51.550;12.138;2023-10-31T05:02:35;98483.06;;;17.11;76.57
12182;BME280;6154;51.550;12.138;2023-10-31T05:05:03;98492.28;;;17.08;76.80
12182;BME280;6154;51.550;12.138;2023-10-31T05:07:32;98489.38;;;17.18;76.43
12182;BME280;6154;51.550;12.138;2023-10-31T05:10:00;98491.06;;;17.19;75.76
12182;BME280;6154;51.550;12.138;2023-10-31T05:12:28;98493.91;;;17.17;75.97
12182;BME280;6154;51.550;12.138;2023-10-31T05:14:56;98502.28;;;17.14;75.87
12182;BME280;6154;51.550;12.138;2023-10-31T05:17:26;98498.25;;;17.18;75.68
12182;BME280;6154;51.550;12.138;2023-10-31T05:19:54;98499.72;;;17.21;75.75
12182;BME280;6154;51.550;12.138;2023-10-31T05:22:22;98491.81;;;17.05;76.57
12182;BME280;6154;51.550;12.138;2023-10-31T05:24:52;98489.06;;;17.13;75.96
12182;BME280;6154;51.550;12.138;2023-10-31T05:27:20;98490.59;;;17.15;76.14
12182;BME280;6154;51.550;12.138;2023-10-31T05:29:49;98486.91;;;17.16;76.20
12182;BME280;6154;51.550;12.138;2023-10-31T05:32:17;98485.06;;;17.17;76.15
12182;BME280;6154;51.550;12.138;2023-10-31T05:34:47;98492.25;;;17.16;75.99
12182;BME280;6154;51.550;12.138;2023-10-31T05:37:15;98491.25;;;17.09;76.21
12182;BME280;6154;51.550;12.138;2023-10-31T05:39:43;98488.94;;;17.06;76.22
12182;BME280;6154;51.550;12.138;2023-10-31T05:42:11;98489.97;;;17.05;76.04
12182;BME280;6154;51.550;12.138;2023-10-31T05:44:39;98487.09;;;17.07;75.63
12182;BME280;6154;51.550;12.138;2023-10-31T05:47:07;98502.19;;;16.91;75.51
12182;BME280;6154;51.550;12.138;2023-10-31T05:49:35;98504.66;;;17.01;74.96
12182;BME280;6154;51.550;12.138;2023-10-31T05:52:05;98515.06;;;16.88;74.85
12182;BME280;6154;51.550;12.138;2023-10-31T05:54:33;98532.41;;;16.92;74.61
12182;BME280;6154;51.550;12.138;2023-10-31T05:57:01;98539.41;;;16.93;74.28
12182;BME280;6154;51.550;12.138;2023-10-31T05:59:29;98541.06;;;17.02;73.43
12182;BME280;6154;51.550;12.138;2023-10-31T06:01:56;98549.78;;;16.96;73.68
12182;BME280;6154;51.550;12.138;2023-10-31T06:04:25;98560.81;;;16.93;72.81
12182;BME280;6154;51.550;12.138;2023-10-31T06:06:53;98565.34;;;16.84;72.32
12182;BME280;6154;51.550;12.138;2023-10-31T06:09:22;98568.22;;;16.75;72.43
12182;BME280;6154;51.550;12.138;2023-10-31T06:11:50;98570.16;;;16.89;72.59
12182;BME280;6154;51.550;12.138;2023-10-31T06:14:18;98575.72;;;16.71;72.15
12182;BME280;6154;51.550;12.138;2023-10-31T06:16:47;98578.19;;;16.89;71.87
12182;BME280;6154;51.550;12.138;2023-10-31T06:19:16;98589.72;;;16.73;71.11
12182;BME280;6154;51.550;12.138;2023-10-31T06:21:44;98584.56;;;16.72;70.93
12182;BME280;6154;51.550;12.138;2023-10-31T06:24:12;98593.22;;;16.57;70.87
12182;BME280;6154;51.550;12.138;2023-10-31T06:26:42;98587.72;;;16.67;70.46
12182;BME280;6154;51.550;12.138;2023-10-31T06:29:10;98596.41;;;16.45;69.92
12182;BME280;6154;51.550;12.138;2023-10-31T06:31:58;98610.94;;;16.58;70.02
12182;BME280;6154;51.550;12.138;2023-10-31T06:34:26;98614.09;;;16.54;69.72
12182;BME280;6154;51.550;12.138;2023-10-31T06:36:54;98615.94;;;16.78;70.11
12182;BME280;6154;51.550;12.138;2023-10-31T06:39:23;98610.91;;;16.50;68.82
12182;BME280;6154;51.550;12.138;2023-10-31T06:41:55;98625.94;;;16.67;69.19
12182;BME280;6154;51.550;12.138;2023-10-31T06:44:23;98619.94;;;16.65;69.30
12182;BME280;6154;51.550;12.138;2023-10-31T06:46:52;98618.75;;;16.60;69.34
12182;BME280;6154;51.550;12.138;2023-10-31T06:49:20;98632.47;;;16.65;68.83
12182;BME280;6154;51.550;12.138;2023-10-31T06:51:49;98643.81;;;16.59;68.84
12182;BME280;6154;51.550;12.138;2023-10-31T06:54:17;98640.31;;;16.66;69.08
12182;BME280;6154;51.550;12.138;2023-10-31T06:56:46;98634.44;;;16.63;68.79
12182;BME280;6154;51.550;12.138;2023-10-31T06:59:17;98642.84;;;16.68;68.78
12182;BME280;6154;51.550;12.138;2023-10-31T07:01:45;98644.66;;;16.67;68.81
12182;BME280;6154;51.550;12.138;2023-10-31T07:04:13;98645.34;;;16.70;68.77
12182;BME280;6154;51.550;12.138;2023-10-31T07:06:42;98643.16;;;16.81;68.69
12182;BME280;6154;51.550;12.138;2023-10-31T07:09:09;98655.69;;;16.89;68.72
12182;BME280;6154;51.550;12.138;2023-10-31T07:11:38;98650.69;;;16.94;68.65
12182;BME280;6154;51.550;12.138;2023-10-31T07:14:06;98652.16;;;16.97;68.63
12182;BME280;6154;51.550;12.138;2023-10-31T07:16:35;98663.53;;;16.99;68.63
12182;BME280;6154;51.550;12.138;2023-10-31T07:19:04;98667.69;;;17.01;68.71
12182;BME280;6154;51.550;12.138;2023-10-31T07:21:32;98673.69;;;17.03;68.72
12182;BME280;6154;51.550;12.138;2023-10-31T07:24:00;98680.72;;;17.04;68.46
12182;BME280;6154;51.550;12.138;2023-10-31T07:26:28;98693.41;;;17.02;68.49
12182;BME280;6154;51.550;12.138;2023-10-31T07:28:56;98697.75;;;17.03;68.65
12182;BME280;6154;51.550;12.138;2023-10-31T07:31:24;98694.59;;;17.00;68.66
12182;BME280;6154;51.550;12.138;2023-10-31T07:33:56;98704.44;;;16.99;68.83
12182;BME280;6154;51.550;12.138;2023-10-31T07:36:24;98711.63;;;16.99;68.66
12182;BME280;6154;51.550;12.138;2023-10-31T07:38:52;98710.78;;;16.90;68.53
12182;BME280;6154;51.550;12.138;2023-10-31T07:41:21;98712.47;;;16.99;68.70
12182;BME280;6154;51.550;12.138;2023-10-31T07:43:49;98708.47;;;16.95;68.35
12182;BME280;6154;51.550;12.138;2023-10-31T07:46:17;98698.25;;;16.99;68.80
12182;BME280;6154;51.550;12.138;2023-10-31T07:48:45;98701.94;;;17.06;68.42
12182;BME280;6154;51.550;12.138;2023-10-31T07:51:15;98702.94;;;17.05;68.13
12182;BME280;6154;51.550;12.138;2023-10-31T07:53:43;98698.63;;;16.95;67.94
12182;BME280;6154;51.550;12.138;2023-10-31T07:56:16;98708.97;;;16.99;68.18
12182;BME280;6154;51.550;12.138;2023-10-31T07:58:48;98719.47;;;17.08;68.58
12182;BME280;6154;51.550;12.138;2023-10-31T08:01:16;98720.66;;;17.06;68.49
12182;BME280;6154;51.550;12.138;2023-10-31T08:03:45;98728.81;;;17.12;68.06
12182;BME280;6154;51.550;12.138;2023-10-31T08:06:15;98737.19;;;17.17;67.86
12182;BME280;6154;51.550;12.138;2023-10-31T08:09:02;98736.53;;;17.07;67.47
12182;BME280;6154;51.550;12.138;2023-10-31T08:11:35;98740.69;;;17.18;67.19
12182;BME280;6154;51.550;12.138;2023-10-31T08:14:03;98753.53;;;17.22;66.98
12182;BME280;6154;51.550;12.138;2023-10-31T08:16:32;98755.88;;;17.01;66.77
12182;BME280;6154;51.550;12.138;2023-10-31T08:19:01;98759.22;;;17.19;67.92
12182;BME280;6154;51.550;12.138;2023-10-31T08:21:31;98762.75;;;17.20;67.72
12182;BME280;6154;51.550;12.138;2023-10-31T08:24:00;98759.06;;;17.13;67.82
12182;BME280;6154;51.550;12.138;2023-10-31T08:26:29;98762.59;;;17.05;67.39
12182;BME280;6154;51.550;12.138;2023-10-31T08:28:57;98755.22;;;17.07;67.81
12182;BME280;6154;51.550;12.138;2023-10-31T08:31:26;98757.22;;;17.21;67.30
12182;BME280;6154;51.550;12.138;2023-10-31T08:33:54;98763.56;;;17.12;66.88
12182;BME280;6154;51.550;12.138;2023-10-31T08:36:22;98760.91;;;17.04;67.04
12182;BME280;6154;51.550;12.138;2023-10-31T08:38:51;98764.22;;;17.31;66.47
12182;BME280;6154;51.550;12.138;2023-10-31T08:41:20;98770.25;;;17.33;66.57
12182;BME280;6154;51.550;12.138;2023-10-31T08:43:48;98778.59;;;17.54;67.24
12182;BME280;6154;51.550;12.138;2023-10-31T08:46:16;98779.09;;;17.33;66.31
12182;BME280;6154;51.550;12.138;2023-10-31T08:48:45;98783.59;;;17.57;66.71
12182;BME280;6154;51.550;12.138;2023-10-31T08:51:13;98770.59;;;17.46;65.80
12182;BME280;6154;51.550;12.138;2023-10-31T08:53:41;98786.44;;;17.56;65.50
12182;BME280;6154;51.550;12.138;2023-10-31T08:56:10;98790.97;;;17.47;65.43
12182;BME280;6154;51.550;12.138;2023-10-31T08:58:38;98800.66;;;17.48;65.47
12182;BME280;6154;51.550;12.138;2023-10-31T09:01:07;98792.94;;;17.53;64.69
12182;BME280;6154;51.550;12.138;2023-10-31T09:03:36;98806.69;;;17.42;64.55
12182;BME280;6154;51.550;12.138;2023-10-31T09:06:04;98804.34;;;17.47;64.46
12182;BME280;6154;51.550;12.138;2023-10-31T09:08:32;98807.03;;;17.55;64.72
12182;BME280;6154;51.550;12.138;2023-10-31T09:11:01;98810.84;;;17.52;64.80
12182;BME280;6154;51.550;12.138;2023-10-31T09:13:30;98818.03;;;17.68;64.99
12182;BME280;6154;51.550;12.138;2023-10-31T09:15:58;98814.69;;;17.66;65.18
12182;BME280;6154;51.550;12.138;2023-10-31T09:18:27;98810.53;;;17.64;63.61
12182;BME280;6154;51.550;12.138;2023-10-31T09:20:55;98812.34;;;17.79;64.49
12182;BME280;6154;51.550;12.138;2023-10-31T09:23:24;98814.72;;;17.74;63.97
12182;BME280;6154;51.550;12.138;2023-10-31T09:25:52;98811.97;;;17.99;64.00
12182;BME280;6154;51.550;12.138;2023-10-31T09:28:21;98817.16;;;17.92;63.33
12182;BME280;6154;51.550;12.138;2023-10-31T09:30:51;98816.97;;;18.02;63.43
12182;BME280;6154;51.550;12.138;2023-10-31T09:33:19;98817.19;;;17.68;63.87
12182;BME280;6154;51.550;12.138;2023-10-31T09:35:47;98828.09;;;17.74;64.05
12182;BME280;6154;51.550;12.138;2023-10-31T09:38:15;98826.06;;;17.85;64.71
12182;BME280;6154;51.550;12.138;2023-10-31T09:40:44;98819.03;;;17.59;64.13
12182;BME280;6154;51.550;12.138;2023-10-31T09:43:12;98822.91;;;17.65;63.54
12182;BME280;6154;51.550;12.138;2023-10-31T09:45:40;98826.41;;;17.57;64.12
12182;BME280;6154;51.550;12.138;2023-10-31T09:48:10;98835.44;;;17.72;63.86
12182;BME280;6154;51.550;12.138;2023-10-31T09:50:39;98830.25;;;17.87;63.67
12182;BME280;6154;51.550;12.138;2023-10-31T09:53:09;98822.56;;;17.51;63.62
12182;BME280;6154;51.550;12.138;2023-10-31T09:55:38;98833.28;;;17.76;63.95
12182;BME280;6154;51.550;12.138;2023-10-31T09:58:06;98825.75;;;17.71;63.73
12182;BME280;6154;51.550;12.138;2023-10-31T10:00:35;98830.03;;;18.05;63.46
12182;BME280;6154;51.550;12.138;2023-10-31T10:03:03;98827.91;;;18.39;63.66
12182;BME280;6154;51.550;12.138;2023-10-31T10:05:34;98840.56;;;18.15;62.39
12182;BME280;6154;51.550;12.138;2023-10-31T10:08:03;98830.19;;;18.51;62.52
12182;BME280;6154;51.550;12.138;2023-10-31T10:10:33;98838.03;;;18.13;62.23
12182;BME280;6154;51.550;12.138;2023-10-31T10:13:02;98838.84;;;18.14;62.10
12182;BME280;6154;51.550;12.138;2023-10-31T10:15:43;98847.06;;;18.12;62.62
12182;BME280;6154;51.550;12.138;2023-10-31T10:18:24;98839.75;;;17.98;62.40
12182;BME280;6154;51.550;12.138;2023-10-31T10:21:05;98847.47;;;17.68;62.64
12182;BME280;6154;51.550;12.138;2023-10-31T10:23:34;98844.75;;;18.01;62.95
12182;BME280;6154;51.550;12.138;2023-10-31T10:26:03;98860.53;;;17.71;61.88
12182;BME280;6154;51.550;12.138;2023-10-31T10:28:31;98850.66;;;17.88;61.99
12182;BME280;6154;51.550;12.138;2023-10-31T10:31:00;98850.47;;;17.90;62.53
12182;BME280;6154;51.550;12.138;2023-10-31T10:33:29;98860.94;;;18.24;63.33
12182;BME280;6154;51.550;12.138;2023-10-31T10:35:59;98854.19;;;18.44;63.49
12182;BME280;6154;51.550;12.138;2023-10-31T10:38:29;98854.41;;;18.26;61.09
12182;BME280;6154;51.550;12.138;2023-10-31T10:41:01;98859.00;;;18.49;62.13
12182;BME280;6154;51.550;12.138;2023-10-31T10:43:34;98863.72;;;18.38;61.96
12182;BME280;6154;51.550;12.138;2023-10-31T10:46:05;98865.31;;;18.17;60.46
12182;BME280;6154;51.550;12.138;2023-10-31T10:48:38;98861.12;;;18.14;61.38
12182;BME280;6154;51.550;12.138;2023-10-31T10:51:13;98870.78;;;18.31;62.40
12182;BME280;6154;51.550;12.138;2023-10-31T10:53:49;98858.47;;;18.06;60.47
12182;BME280;6154;51.550;12.138;2023-10-31T10:56:22;98856.47;;;18.08;61.40
12182;BME280;6154;51.550;12.138;2023-10-31T10:58:55;98851.97;;;17.92;61.13
12182;BME280;6154;51.550;12.138;2023-10-31T11:01:27;98860.97;;;18.07;61.05
12182;BME280;6154;51.550;12.138;2023-10-31T11:03:56;98864.31;;;18.09;61.47
12182;BME280;6154;51.550;12.138;2023-10-31T11:06:25;98864.16;;;18.03;61.24
12182;BME280;6154;51.550;12.138;2023-10-31T11:08:55;98861.94;;;18.23;62.83
12182;BME280;6154;51.550;12.138;2023-10-31T11:11:25;98859.31;;;17.98;62.05
12182;BME280;6154;51.550;12.138;2023-10-31T11:13:54;98866.03;;;17.86;62.13
12182;BME280;6154;51.550;12.138;2023-10-31T11:16:28;98862.66;;;17.92;63.24
12182;BME280;6154;51.550;12.138;2023-10-31T11:18:57;98878.25;;;17.64;63.29
12182;BME280;6154;51.550;12.138;2023-10-31T11:21:27;98881.75;;;17.65;64.35
12182;BME280;6154;51.550;12.138;2023-10-31T11:24:00;98871.56;;;17.36;64.11
12182;BME280;6154;51.550;12.138;2023-10-31T11:26:30;98878.91;;;17.34;65.05
12182;BME280;6154;51.550;12.138;2023-10-31T11:29:06;98884.94;;;17.44;65.33
12182;BME280;6154;51.550;12.138;2023-10-31T11:31:37;98894.22;;;17.07;65.39
12182;BME280;6154;51.550;12.138;2023-10-31T11:34:06;98908.91;;;17.03;66.41
12182;BME280;6154;51.550;12.138;2023-10-31T11:36:35;98908.91;;;17.03;66.26
12182;BME280;6154;51.550;12.138;2023-10-31T11:39:22;98916.31;;;17.17;66.67
12182;BME280;6154;51.550;12.138;2023-10-31T11:41:54;98906.81;;;17.39;66.00
12182;BME280;6154;51.550;12.138;2023-10-31T11:44:25;98907.00;;;17.54;66.27
12182;BME280;6154;51.550;12.138;2023-10-31T11:46:54;98916.69;;;17.47;65.60
12182;BME280;6154;51.550;12.138;2023-10-31T11:49:45;98916.84;;;17.53;65.71
12182;BME280;6154;51.550;12.138;2023-10-31T11:52:15;98921.41;;;17.69;64.97
12182;BME280;6154;51.550;12.138;2023-10-31T11:54:45;98930.09;;;17.71;65.24
12182;BME280;6154;51.550;12.138;2023-10-31T11:57:26;98935.81;;;17.85;65.25
12182;BME280;6154;51.550;12.138;2023-10-31T11:59:54;98935.13;;;17.91;64.26
12182;BME280;6154;51.550;12.138;2023-10-31T12:02:22;98945.66;;;18.00;64.14
12182;BME280;6154;51.550;12.138;2023-10-31T12:04:51;98935.75;;;18.17;64.11
12182;BME280;6154;51.550;12.138;2023-10-31T12:07:19;98956.66;;;18.38;64.00
12182;BME280;6154;51.550;12.138;2023-10-31T12:09:48;98942.72;;;18.67;63.98
12182;BME280;6154;51.550;12.138;2023-10-31T12:12:30;98955.28;;;18.42;62.81
12182;BME280;6154;51.550;12.138;2023-10-31T12:15:04;98945.09;;;18.46;61.26
12182;BME280;6154;51.550;12.138;2023-10-31T12:17:33;98956.56;;;18.62;62.28
12182;BME280;6154;51.550;12.138;2023-10-31T12:20:06;98956.00;;;18.91;63.54
12182;BME280;6154;51.550;12.138;2023-10-31T12:22:35;98965.44;;;18.79;61.26
12182;BME280;6154;51.550;12.138;2023-10-31T12:25:06;98965.50;;;19.02;62.74
12182;BME280;6154;51.550;12.138;2023-10-31T12:27:42;98968.06;;;18.95;61.98
12182;BME280;6154;51.550;12.138;2023-10-31T12:30:12;98977.66;;;19.21;61.60
12182;BME280;6154;51.550;12.138;2023-10-31T12:32:41;98978.78;;;18.95;60.06
12182;BME280;6154;51.550;12.138;2023-10-31T12:35:12;98975.97;;;18.81;60.71
12182;BME280;6154;51.550;12.138;2023-10-31T12:37:45;98999.69;;;19.08;60.54
12182;BME280;6154;51.550;12.138;2023-10-31T12:40:16;98983.41;;;19.10;60.85
12182;BME280;6154;51.550;12.138;2023-10-31T12:42:47;98983.66;;;19.23;60.24
12182;BME280;6154;51.550;12.138;2023-10-31T12:45:18;98998.38;;;19.35;61.46
12182;BME280;6154;51.550;12.138;2023-10-31T12:48:00;98994.03;;;19.34;59.19
12182;BME280;6154;51.550;12.138;2023-10-31T12:50:29;98995.84;;;19.34;58.57
12182;BME280;6154;51.550;12.138;2023-10-31T12:52:57;99004.19;;;19.16;58.52
12182;BME280;6154;51.550;12.138;2023-10-31T12:55:28;99007.59;;;19.33;60.78
12182;BME280;6154;51.550;12.138;2023-10-31T12:57:57;99013.66;;;18.87;58.72
12182;BME280;6154;51.550;12.138;2023-10-31T13:00:30;99018.31;;;19.02;60.03
12182;BME280;6154;51.550;12.138;2023-10-31T13:03:01;99015.16;;;18.90;58.76
12182;BME280;6154;51.550;12.138;2023-10-31T13:05:31;99013.69;;;18.71;58.41
12182;BME280;6154;51.550;12.138;2023-10-31T13:08:00;99029.38;;;18.99;60.13
12182;BME280;6154;51.550;12.138;2023-10-31T13:10:34;99027.00;;;19.04;59.68
12182;BME280;6154;51.550;12.138;2023-10-31T13:13:02;99023.59;;;19.26;59.26